Time;durP1;ratioP1;P1;durP2;ratioP2;P2;SDS_P1;SDS_P2;PMS_P1;PMS_P2;Temp;Humidity;BMP_temperature;BMP_pressure;BME280_temperature;BME280_humidity;BME280_pressure;Samples;Min_cycle;Max_cycle;Signal;HPM_P1;HPM_P2
2023/04/04 00:01:59;;;;;;;0.10;0.10;;;-0.90;99.90;;;;;;5136203;27;20051;-86
2023/04/04 00:04:26;;;;;;;0.10;0.10;;;-0.90;99.90;;;;;;5138926;27;20553;-86
2023/04/04 00:06:52;;;;;;;0.10;0.10;;;-0.90;99.90;;;;;;5136781;27;20043;-86
2023/04/04 00:09:18;;;;;;;0.73;0.73;;;-1.00;99.90;;;;;;5138319;27;20080;-85
2023/04/04 00:11:44;;;;;;;0.00;0.00;;;-0.90;99.90;;;;;;5136907;27;20039;-86
2023/04/04 00:14:10;;;;;;;0.40;0.40;;;-0.90;99.90;;;;;;5138028;27;20039;-86
2023/04/04 00:16:36;;;;;;;2.40;2.00;;;-0.90;99.90;;;;;;5136185;27;20065;-86
2023/04/04 00:19:02;;;;;;;0.10;0.10;;;-0.90;99.90;;;;;;5119075;27;20054;-87
2023/04/04 00:21:29;;;;;;;0.10;0.10;;;-1.00;99.90;;;;;;5137865;27;20047;-87
2023/04/04 00:23:56;;;;;;;0.25;0.25;;;-0.90;99.90;;;;;;5137947;27;20051;-87
2023/04/04 00:26:25;;;;;;;0.15;0.15;;;-0.90;99.90;;;;;;5137032;27;20058;-87
2023/04/04 00:28:51;;;;;;;0.05;0.05;;;-0.90;99.90;;;;;;5138281;27;20058;-87
2023/04/04 00:31:18;;;;;;;0.00;0.00;;;-0.90;99.90;;;;;;5137692;27;20186;-87
2023/04/04 00:33:44;;;;;;;0.80;0.80;;;-0.90;99.90;;;;;;5137758;27;20099;-86
2023/04/04 00:36:10;;;;;;;0.32;0.32;;;-0.80;99.90;;;;;;5118623;27;20031;-86
2023/04/04 00:38:36;;;;;;;0.05;0.05;;;-0.70;99.90;;;;;;5138018;27;20068;-86
2023/04/04 00:41:02;;;;;;;0.38;0.38;;;-0.80;99.90;;;;;;5135919;27;20065;-87
2023/04/04 00:43:28;;;;;;;1.85;1.40;;;-0.80;99.90;;;;;;5137224;27;20047;-86
2023/04/04 00:45:55;;;;;;;0.20;0.20;;;-0.70;99.90;;;;;;5137240;27;20046;-86
2023/04/04 00:48:23;;;;;;;0.10;0.10;;;0.40;99.90;;;;;;5135688;27;20108;-86
2023/04/04 00:50:48;;;;;;;0.15;0.15;;;-0.60;99.90;;;;;;5118183;27;20114;-85
2023/04/04 00:53:14;;;;;;;0.00;0.00;;;-0.70;99.90;;;;;;5137467;27;20531;-86
2023/04/04 00:55:42;;;;;;;0.40;0.40;;;-0.60;99.90;;;;;;5135769;27;20043;-86
2023/04/04 00:58:09;;;;;;;0.00;0.00;;;-0.60;99.90;;;;;;5117753;27;20412;-85
2023/04/04 01:00:35;;;;;;;0.08;0.08;;;0.10;99.90;;;;;;5117747;27;20408;-85
2023/04/04 01:03:02;;;;;;;0.20;0.20;;;-0.40;99.90;;;;;;5135496;27;20047;-86
2023/04/04 01:05:30;;;;;;;0.20;0.20;;;0.20;99.90;;;;;;5118393;27;20126;-86
2023/04/04 01:07:56;;;;;;;0.00;0.00;;;-0.60;99.90;;;;;;5137161;27;20061;-86
2023/04/04 01:10:22;;;;;;;0.10;0.10;;;-0.50;99.90;;;;;;5135809;27;20043;-86
2023/04/04 01:12:47;;;;;;;0.25;0.25;;;-0.20;99.90;;;;;;5137030;27;20091;-86
2023/04/04 01:15:13;;;;;;;0.10;0.10;;;-1.20;99.90;;;;;;5135035;27;20442;-86
2023/04/04 01:17:40;;;;;;;0.10;0.10;;;-0.50;99.90;;;;;;5136401;27;20100;-86
2023/04/04 01:20:14;;;;;;;0.10;0.10;;;-1.00;99.90;;;;;;5135006;27;20038;-86
2023/04/04 01:22:42;;;;;;;0.10;0.10;;;-0.70;99.90;;;;;;5135211;27;20062;-86
2023/04/04 01:25:08;;;;;;;0.38;0.30;;;0.00;99.90;;;;;;5135114;27;20131;-86
2023/04/04 01:27:34;;;;;;;0.80;0.80;;;-0.70;99.90;;;;;;5136930;27;20054;-86
2023/04/04 01:30:01;;;;;;;0.10;0.10;;;-0.70;99.90;;;;;;5136791;27;20373;-86
2023/04/04 01:32:49;;;;;;;0.25;0.25;;;-0.90;99.90;;;;;;5135921;27;20031;-87
2023/04/04 01:35:26;;;;;;;0.10;0.10;;;0.00;99.90;;;;;;5119074;27;20089;-87
2023/04/04 01:38:10;;;;;;;0.08;0.08;;;-1.00;99.90;;;;;;5118642;27;20187;-86
2023/04/04 01:40:37;;;;;;;0.65;0.65;;;-1.10;99.90;;;;;;5136716;27;20058;-87
2023/04/04 01:43:02;;;;;;;0.00;0.00;;;-1.10;99.90;;;;;;5136899;27;20039;-86
2023/04/04 01:45:29;;;;;;;0.03;0.03;;;-1.30;99.90;;;;;;5134632;27;20071;-86
2023/04/04 01:47:58;;;;;;;0.10;0.10;;;-1.10;99.90;;;;;;5118251;27;20103;-86
2023/04/04 01:50:24;;;;;;;1.10;0.57;;;-1.10;99.90;;;;;;5137137;27;20564;-86
2023/04/04 01:52:59;;;;;;;0.50;0.50;;;-1.10;99.90;;;;;;5136210;27;20112;-89
2023/04/04 01:55:25;;;;;;;0.00;0.00;;;-1.10;99.90;;;;;;5134999;27;20060;-86
2023/04/04 01:57:51;;;;;;;1.60;0.40;;;-1.20;99.90;;;;;;5117647;27;20034;-86
2023/04/04 02:00:17;;;;;;;0.20;0.20;;;-1.30;99.90;;;;;;5135403;27;20047;-86
2023/04/04 02:02:42;;;;;;;0.15;0.15;;;-1.30;99.90;;;;;;5136037;27;20051;-87
2023/04/04 02:05:08;;;;;;;0.10;0.10;;;-0.10;99.90;;;;;;5135319;27;20102;-86
2023/04/04 02:07:34;;;;;;;0.10;0.10;;;0.00;99.90;;;;;;5135101;27;20126;-86
2023/04/04 02:10:00;;;;;;;1.75;1.65;;;-1.50;99.90;;;;;;5136609;27;20042;-86
2023/04/04 02:12:26;;;;;;;2.10;1.48;;;-1.40;99.90;;;;;;5117680;28;20047;-86
2023/04/04 02:14:52;;;;;;;0.10;0.10;;;-1.50;99.90;;;;;;5134508;27;20035;-87
2023/04/04 02:17:20;;;;;;;0.10;0.10;;;-1.50;99.90;;;;;;5140195;27;20055;-86
2023/04/04 02:19:46;;;;;;;0.00;0.00;;;-1.50;99.90;;;;;;5121134;28;20047;-86
2023/04/04 02:22:12;;;;;;;0.10;0.10;;;-1.50;99.90;;;;;;5134365;28;20049;-87
2023/04/04 02:24:37;;;;;;;0.00;0.00;;;0.00;99.90;;;;;;5134784;28;20075;-87
2023/04/04 02:27:03;;;;;;;0.30;0.30;;;-1.00;99.90;;;;;;5134082;28;20049;-87
2023/04/04 02:29:30;;;;;;;0.10;0.10;;;-0.60;99.90;;;;;;5116885;28;20143;-88
2023/04/04 02:31:56;;;;;;;0.10;0.10;;;-1.60;99.90;;;;;;5117870;28;20047;-86
2023/04/04 02:34:22;;;;;;;0.10;0.10;;;-1.60;99.90;;;;;;5135035;28;20526;-85
2023/04/04 02:36:47;;;;;;;0.20;0.20;;;-1.70;99.90;;;;;;5134515;28;20039;-86
2023/04/04 02:39:13;;;;;;;0.10;0.10;;;-1.90;99.90;;;;;;5134709;28;20043;-85
2023/04/04 02:41:40;;;;;;;0.52;0.52;;;-1.70;99.90;;;;;;5136229;27;20047;-86
2023/04/04 02:44:07;;;;;;;0.08;0.08;;;-2.10;99.90;;;;;;5134806;28;20047;-85
2023/04/04 02:46:33;;;;;;;0.05;0.05;;;-2.20;99.90;;;;;;5134874;28;20437;-86
2023/04/04 02:49:00;;;;;;;0.35;0.35;;;-2.20;99.90;;;;;;5135942;28;20051;-86
2023/04/04 02:51:30;;;;;;;1.75;1.65;;;-2.20;99.90;;;;;;5133801;28;20100;-86
2023/04/04 02:53:56;;;;;;;2.45;1.88;;;-2.30;99.90;;;;;;5135511;27;20107;-86
2023/04/04 02:56:21;;;;;;;0.82;0.82;;;-2.20;99.90;;;;;;5117762;28;20102;-86
2023/04/04 02:58:47;;;;;;;0.10;0.10;;;-3.50;99.90;;;;;;5136154;27;20447;-86
2023/04/04 03:01:13;;;;;;;0.00;0.00;;;-2.30;99.90;;;;;;5121391;27;20062;-86
2023/04/04 03:03:39;;;;;;;0.40;0.40;;;-2.40;99.90;;;;;;5120925;27;20357;-86
2023/04/04 03:06:05;;;;;;;0.10;0.10;;;-2.20;99.90;;;;;;5138173;27;20047;-86
2023/04/04 03:08:31;;;;;;;0.03;0.03;;;-2.30;99.90;;;;;;5120699;27;20146;-86
2023/04/04 03:10:56;;;;;;;0.10;0.10;;;-1.00;99.90;;;;;;5139074;27;20538;-86
2023/04/04 03:13:22;;;;;;;0.20;0.20;;;-2.40;99.90;;;;;;5138053;27;20039;-86
2023/04/04 03:16:05;;;;;;;0.10;0.10;;;-2.50;99.90;;;;;;5137376;27;20038;-85
2023/04/04 03:18:32;;;;;;;0.10;0.10;;;-2.70;99.90;;;;;;5119808;27;20135;-85
2023/04/04 03:20:58;;;;;;;0.10;0.10;;;-2.70;99.90;;;;;;5120681;27;20078;-86
2023/04/04 03:23:23;;;;;;;0.10;0.10;;;-3.00;99.90;;;;;;5136663;27;20826;-85
2023/04/04 03:25:53;;;;;;;0.10;0.10;;;-2.20;99.90;;;;;;5136971;27;20122;-86
2023/04/04 03:28:20;;;;;;;0.00;0.00;;;-3.00;99.90;;;;;;5137096;27;20047;-86
2023/04/04 03:30:46;;;;;;;0.15;0.15;;;-2.70;99.90;;;;;;5120011;27;20054;-86
2023/04/04 03:33:12;;;;;;;0.00;0.00;;;-2.40;99.90;;;;;;5136964;27;20146;-87
2023/04/04 03:35:38;;;;;;;0.00;0.00;;;-2.20;99.90;;;;;;5119547;27;20192;-86
2023/04/04 03:38:05;;;;;;;0.08;0.08;;;-2.00;99.90;;;;;;5137067;27;20050;-86
2023/04/04 03:40:31;;;;;;;0.13;0.13;;;-2.80;99.90;;;;;;5120540;27;20051;-86
2023/04/04 03:42:57;;;;;;;0.10;0.10;;;-1.80;99.90;;;;;;5119993;27;20061;-87
2023/04/04 03:45:26;;;;;;;0.10;0.10;;;-2.70;99.90;;;;;;5136968;27;20541;-86
2023/04/04 03:47:55;;;;;;;0.10;0.10;;;-4.50;99.90;;;;;;5137267;27;20047;-87
2023/04/04 03:50:24;;;;;;;0.10;0.10;;;-3.20;99.90;;;;;;5120052;27;20623;-87
2023/04/04 03:52:50;;;;;;;0.10;0.10;;;-2.90;99.90;;;;;;5119691;27;20461;-86
2023/04/04 03:55:15;;;;;;;0.10;0.10;;;-2.60;99.90;;;;;;5120149;27;20047;-86
2023/04/04 03:57:44;;;;;;;0.57;0.52;;;-3.00;99.90;;;;;;5137024;27;20043;-87
2023/04/04 04:00:11;;;;;;;0.13;0.13;;;-2.20;99.90;;;;;;5138033;27;20053;-86
2023/04/04 04:02:36;;;;;;;0.00;0.00;;;-2.90;99.90;;;;;;5120381;27;20047;-86
2023/04/04 04:05:03;;;;;;;0.00;0.00;;;-2.60;99.90;;;;;;5120352;27;20047;-87
2023/04/04 04:07:29;;;;;;;0.10;0.10;;;-2.60;99.90;;;;;;5120200;27;20054;-86
2023/04/04 04:09:54;;;;;;;0.10;0.10;;;-2.70;99.90;;;;;;5112061;27;20047;-87
2023/04/04 04:12:26;;;;;;;0.00;0.00;;;-2.50;99.90;;;;;;5116807;28;20048;-86
2023/04/04 04:14:52;;;;;;;0.10;0.10;;;-2.50;99.90;;;;;;5103179;27;20035;-87
2023/04/04 04:17:21;;;;;;;0.15;0.15;;;-1.90;99.90;;;;;;5120645;27;20408;-86
2023/04/04 04:19:47;;;;;;;0.00;0.00;;;-1.20;99.90;;;;;;5115816;28;20051;-86
2023/04/04 04:22:13;;;;;;;0.10;0.10;;;-2.50;99.90;;;;;;5116329;28;20066;-86
2023/04/04 04:24:41;;;;;;;0.10;0.10;;;-2.10;99.90;;;;;;5100033;28;20078;-87
2023/04/04 04:27:07;;;;;;;0.10;0.10;;;-1.80;99.90;;;;;;5099339;28;20054;-87
2023/04/04 04:29:36;;;;;;;0.20;0.20;;;-1.50;99.90;;;;;;5116535;28;20039;-87
2023/04/04 04:32:05;;;;;;;0.38;0.38;;;-2.70;99.90;;;;;;5100038;28;20104;-86
2023/04/04 04:34:31;;;;;;;0.10;0.10;;;-2.70;99.90;;;;;;5099322;28;20168;-86
2023/04/04 04:37:02;;;;;;;0.10;0.10;;;-2.00;99.90;;;;;;5101023;27;20713;-87
2023/04/04 04:39:28;;;;;;;0.28;0.28;;;-2.90;99.90;;;;;;5119455;27;20058;-87
2023/04/04 04:41:54;;;;;;;0.43;0.43;;;-2.40;99.90;;;;;;5119167;27;20043;-88
2023/04/04 04:44:29;;;;;;;0.10;0.10;;;-2.50;99.90;;;;;;5111483;28;20325;-87
2023/04/04 04:47:20;;;;;;;0.10;0.10;;;-3.30;99.90;;;;;;5135131;27;20042;-87
2023/04/04 04:49:48;;;;;;;1.35;1.33;;;-3.10;99.90;;;;;;5102273;28;20285;-87
2023/04/04 04:52:18;;;;;;;0.20;0.20;;;-2.90;99.90;;;;;;5099179;28;20056;-88
2023/04/04 04:54:44;;;;;;;0.10;0.10;;;-1.80;99.90;;;;;;5098970;28;20500;-86
2023/04/04 04:57:10;;;;;;;0.00;0.00;;;-2.60;99.90;;;;;;5116749;28;20057;-86
2023/04/04 04:59:36;;;;;;;0.00;0.00;;;-2.30;99.90;;;;;;5098251;28;20959;-87
2023/04/04 05:02:02;;;;;;;0.10;0.10;;;-2.30;99.90;;;;;;5124403;27;20043;-87
2023/04/04 05:04:31;;;;;;;0.10;0.10;;;-2.60;99.90;;;;;;5118554;27;20050;-86
2023/04/04 05:06:58;;;;;;;0.10;0.10;;;-1.80;99.90;;;;;;5118359;27;20050;-87
2023/04/04 05:09:23;;;;;;;0.10;0.10;;;-1.70;99.90;;;;;;5118526;27;20046;-87
2023/04/04 05:11:49;;;;;;;0.00;0.00;;;-1.80;99.90;;;;;;5117300;27;20431;-87
2023/04/04 05:14:15;;;;;;;0.10;0.10;;;-3.80;99.90;;;;;;5117264;27;20099;-88
2023/04/04 05:16:41;;;;;;;0.10;0.10;;;-2.70;99.90;;;;;;5134571;27;20055;-88
2023/04/04 05:19:07;;;;;;;0.10;0.10;;;-3.70;99.90;;;;;;5134900;27;20081;-85
2023/04/04 05:21:33;;;;;;;0.00;0.00;;;-2.80;99.90;;;;;;5134879;27;20039;-85
2023/04/04 05:23:58;;;;;;;0.10;0.10;;;-2.50;99.90;;;;;;5132772;27;20064;-85
2023/04/04 05:26:24;;;;;;;0.05;0.05;;;-2.20;99.90;;;;;;5121002;27;20087;-85
2023/04/04 05:28:50;;;;;;;0.10;0.10;;;-2.40;99.90;;;;;;5096041;28;20055;-85
2023/04/04 05:31:18;;;;;;;0.28;0.28;;;-2.30;99.90;;;;;;5120839;27;20126;-85
2023/04/04 05:33:44;;;;;;;0.10;0.10;;;-1.80;99.90;;;;;;5117053;27;20078;-85
2023/04/04 05:36:11;;;;;;;0.10;0.10;;;-1.50;99.90;;;;;;5117702;27;20039;-84
2023/04/04 05:38:38;;;;;;;2.35;0.68;;;-0.60;99.90;;;;;;5134911;27;20503;-85
2023/04/04 05:41:03;;;;;;;0.08;0.08;;;-0.80;99.90;;;;;;5117967;27;20047;-85
2023/04/04 05:43:29;;;;;;;0.30;0.30;;;-1.40;99.90;;;;;;5135040;27;20041;-85
2023/04/04 05:45:55;;;;;;;1.23;1.13;;;-0.80;99.90;;;;;;5118494;27;20050;-85
2023/04/04 05:48:23;;;;;;;0.30;0.30;;;-1.20;99.90;;;;;;5133782;27;20051;-85
2023/04/04 05:50:49;;;;;;;0.10;0.10;;;-1.00;99.90;;;;;;5116895;27;20054;-85
2023/04/04 05:53:16;;;;;;;0.10;0.10;;;-0.90;99.90;;;;;;5116865;27;20115;-86
2023/04/04 05:55:41;;;;;;;0.10;0.10;;;-1.00;99.90;;;;;;5131186;27;20078;-85
2023/04/04 05:58:19;;;;;;;0.10;0.10;;;-1.80;99.90;;;;;;5110655;27;20085;-86
2023/04/04 06:00:53;;;;;;;1.48;1.00;;;-1.10;99.90;;;;;;5111123;27;20625;-85
2023/04/04 06:03:27;;;;;;;0.20;0.20;;;-1.20;99.90;;;;;;5128012;27;20075;-86
2023/04/04 06:06:19;;;;;;;2.20;2.00;;;-1.50;99.90;;;;;;5120605;27;20061;-86
2023/04/04 06:08:47;;;;;;;0.52;0.52;;;-1.20;99.90;;;;;;5127630;27;20047;-86
2023/04/04 06:11:18;;;;;;;0.10;0.10;;;0.10;99.90;;;;;;5111092;27;20061;-86
2023/04/04 06:13:58;;;;;;;0.00;0.00;;;-1.10;99.90;;;;;;5110613;27;20043;-86
2023/04/04 06:16:28;;;;;;;0.00;0.00;;;-0.30;99.90;;;;;;5109070;28;20063;-85
2023/04/04 06:19:00;;;;;;;0.52;0.52;;;-0.90;99.90;;;;;;5110308;27;20377;-89
2023/04/04 06:21:28;;;;;;;0.10;0.10;;;0.10;99.90;;;;;;5111382;28;20054;-87
2023/04/04 06:23:54;;;;;;;0.25;0.25;;;1.60;99.90;;;;;;5128517;28;20035;-86
2023/04/04 06:26:26;;;;;;;1.08;0.52;;;0.70;99.90;;;;;;5127838;28;20356;-87
2023/04/04 06:28:52;;;;;;;0.00;0.00;;;2.00;99.90;;;;;;5104646;28;20043;-87
2023/04/04 06:31:17;;;;;;;0.00;0.00;;;1.90;99.90;;;;;;5091032;28;20047;-87
2023/04/04 06:33:43;;;;;;;0.30;0.30;;;2.70;99.90;;;;;;5110449;28;20039;-87
2023/04/04 06:36:09;;;;;;;0.90;0.88;;;1.70;99.90;;;;;;5111648;28;20503;-87
2023/04/04 06:38:35;;;;;;;0.65;0.63;;;3.30;99.90;;;;;;5094710;28;20048;-88
2023/04/04 06:41:01;;;;;;;0.00;0.00;;;4.10;99.90;;;;;;5094569;28;20130;-88
2023/04/04 06:43:27;;;;;;;0.10;0.10;;;3.40;99.90;;;;;;5111238;28;20047;-88
2023/04/04 06:45:53;;;;;;;0.20;0.20;;;4.20;99.90;;;;;;5111292;28;20096;-88
2023/04/04 06:48:19;;;;;;;0.10;0.10;;;4.30;99.90;;;;;;5111554;28;20055;-89
2023/04/04 06:50:46;;;;;;;0.00;0.00;;;5.20;99.90;;;;;;5094594;28;20070;-88
2023/04/04 06:53:13;;;;;;;0.17;0.17;;;6.10;1.00;;;;;;5111073;28;20047;-88
2023/04/04 06:55:39;;;;;;;0.25;0.25;;;5.90;99.90;;;;;;5093864;28;20565;-88
2023/04/04 06:58:15;;;;;;;0.43;0.28;;;5.70;99.90;;;;;;5110790;28;20047;-87
2023/04/04 07:00:41;;;;;;;0.00;0.00;;;6.00;99.90;;;;;;5093199;28;20146;-87
2023/04/04 07:06:19;;;;;;;0.10;0.10;;;6.50;99.90;;;;;;5108822;28;20142;-88
2023/04/04 07:09:16;;;;;;;0.55;0.55;;;7.50;99.90;;;;;;5111083;28;20054;-87
2023/04/04 07:12:02;;;;;;;0.10;0.10;;;6.60;1.00;;;;;;5111033;28;20050;-88
2023/04/04 07:18:00;;;;;;;0.85;0.30;;;4.30;99.90;;;;;;5074913;28;20481;-88
2023/04/04 07:20:48;;;;;;;0.08;0.08;;;3.70;99.90;;;;;;5093544;28;20507;-88
2023/04/04 07:23:20;;;;;;;1.35;0.98;;;4.10;99.90;;;;;;5109674;28;20417;-87
2023/04/04 07:25:54;;;;;;;0.10;0.10;;;3.20;99.90;;;;;;5093223;28;20971;-87
2023/04/04 07:28:29;;;;;;;0.10;0.10;;;3.50;99.90;;;;;;5058584;28;20060;-87
2023/04/04 07:31:06;;;;;;;0.00;0.00;;;3.20;1.00;;;;;;5094079;28;20063;-87
2023/04/04 07:33:42;;;;;;;0.28;0.28;;;3.10;1.00;;;;;;5107954;28;20062;-87
2023/04/04 07:36:26;;;;;;;0.25;0.25;;;2.40;99.90;;;;;;5094189;28;20043;-87
2023/04/04 07:39:06;;;;;;;1.48;0.88;;;3.90;99.90;;;;;;5093114;28;20571;-87
2023/04/04 07:42:56;;;;;;;;;;;;;;;;;;;;;
2023/04/04 07:46:49;;;;;;;;;;;;;;;;;;;;;
2023/04/04 07:49:57;;;;;;;0.20;0.20;;;3.40;99.90;;;;;;5062844;28;20789;-87
2023/04/04 07:53:02;;;;;;;0.00;0.00;;;3.30;41.70;;;;;;5110215;28;20043;-87
2023/04/04 07:56:43;;;;;;;0.07;0.07;;;3.60;19.80;;;;;;5106928;28;20071;-87
2023/04/04 07:59:51;;;;;;;0.20;0.20;;;3.40;99.90;;;;;;5108974;28;20308;-87
2023/04/04 08:02:35;;;;;;;;;;;3.90;99.90;;;;;;5031932;28;20057;-87
2023/04/04 08:05:15;;;;;;;0.65;0.30;;;4.90;99.90;;;;;;5046457;28;19925;-87
2023/04/04 08:08:41;;;;;;;0.00;0.00;;;3.90;99.90;;;;;;5014517;28;20100;-87
2023/04/04 08:22:55;;;;;;;0.20;0.20;;;8.60;99.90;;;;;;4996192;28;20082;-87
2023/04/04 08:25:56;;;;;;;0.10;0.10;;;10.10;99.90;;;;;;5055414;28;20064;-87
2023/04/04 08:28:28;;;;;;;0.75;0.47;;;9.00;67.20;;;;;;5086641;28;20217;-87
2023/04/04 08:31:11;;;;;;;0.43;0.43;;;9.40;85.40;;;;;;5069797;28;20055;-88
2023/04/04 08:34:08;;;;;;;0.00;0.00;;;9.50;79.20;;;;;;5086229;28;20126;-87
2023/04/04 08:36:37;;;;;;;0.00;0.00;;;9.60;70.60;;;;;;5070386;28;20091;-87
2023/04/04 08:39:32;;;;;;;0.43;0.43;;;10.10;99.90;;;;;;5068883;28;20071;-87
2023/04/04 08:42:19;;;;;;;3.55;1.02;;;9.70;17.60;;;;;;5069487;28;20155;-87
2023/04/04 08:44:53;;;;;;;0.73;0.70;;;10.30;6.50;;;;;;5069235;28;20577;-87
2023/04/04 08:47:23;;;;;;;0.00;0.00;;;10.40;1.00;;;;;;5069083;28;20044;-87
2023/04/04 08:49:58;;;;;;;0.20;0.20;;;10.00;1.00;;;;;;5068544;28;20147;-87
2023/04/04 08:52:28;;;;;;;0.20;0.20;;;11.00;1.00;;;;;;5068857;28;20056;-87
2023/04/04 08:55:03;;;;;;;0.08;0.08;;;10.80;1.00;;;;;;5070503;28;20048;-87
2023/04/04 09:00:26;;;;;;;0.00;0.00;;;10.60;1.00;;;;;;5087300;28;20051;-87
2023/04/04 09:03:14;;;;;;;0.10;0.08;;;10.90;1.00;;;;;;5086499;28;20052;-87
2023/04/04 09:05:49;;;;;;;0.40;0.40;;;11.30;1.00;;;;;;5070656;28;20082;-87
2023/04/04 09:08:24;;;;;;;0.17;0.17;;;12.00;1.00;;;;;;5069903;28;20087;-87
2023/04/04 09:10:56;;;;;;;0.20;0.13;;;12.30;1.00;;;;;;5070609;28;20432;-87
2023/04/04 09:13:23;;;;;;;0.00;0.00;;;11.70;1.00;;;;;;5069859;28;20051;-87
2023/04/04 09:16:00;;;;;;;0.20;0.20;;;10.80;1.00;;;;;;5070056;28;20060;-87
2023/04/04 09:18:26;;;;;;;0.00;0.00;;;11.30;1.00;;;;;;5082677;28;20565;-87
2023/04/04 09:20:54;;;;;;;2.53;0.82;;;12.50;1.00;;;;;;5107053;28;20088;-87
2023/04/04 09:23:22;;;;;;;0.10;0.10;;;12.90;1.00;;;;;;5090135;28;20051;-87
2023/04/04 09:25:55;;;;;;;0.22;0.22;;;13.00;1.00;;;;;;5106656;28;20067;-87
2023/04/04 09:28:26;;;;;;;0.25;0.25;;;12.20;1.00;;;;;;5106993;28;20043;-87
2023/04/04 09:31:10;;;;;;;0.00;0.00;;;13.60;1.00;;;;;;5089327;28;20087;-88
2023/04/04 09:33:40;;;;;;;10.50;0.43;;;13.70;1.00;;;;;;5105365;28;20060;-87
2023/04/04 09:36:16;;;;;;;0.28;0.28;;;12.70;1.00;;;;;;5106476;28;20066;-87
2023/04/04 09:38:50;;;;;;;6.43;1.52;;;13.10;1.00;;;;;;5088266;28;20059;-87
2023/04/04 09:41:22;;;;;;;0.32;0.20;;;12.90;1.00;;;;;;5089490;28;20062;-88
2023/04/04 09:43:51;;;;;;;0.40;0.40;;;11.80;1.00;;;;;;5090003;28;20493;-87
2023/04/04 09:46:20;;;;;;;4.57;0.47;;;14.10;1.00;;;;;;5089517;28;20148;-87
2023/04/04 09:48:50;;;;;;;0.00;0.00;;;14.00;1.00;;;;;;5088937;28;20055;-87
2023/04/04 09:51:16;;;;;;;0.20;0.20;;;12.30;1.00;;;;;;5089345;28;20134;-87
2023/04/04 09:53:47;;;;;;;0.17;0.08;;;12.40;1.00;;;;;;5089469;28;20192;-87
2023/04/04 09:56:16;;;;;;;5.03;0.43;;;12.40;1.00;;;;;;5089387;28;20043;-87
2023/04/04 09:58:46;;;;;;;2.90;0.40;;;13.60;1.00;;;;;;5106069;28;20036;-87
2023/04/04 10:01:16;;;;;;;0.32;0.22;;;12.30;1.00;;;;;;5105958;28;20085;-88
2023/04/04 10:03:49;;;;;;;0.43;0.10;;;12.10;1.00;;;;;;5088720;28;20404;-87
2023/04/04 10:06:19;;;;;;;1.33;0.63;;;10.80;1.00;;;;;;5106210;28;20056;-87
2023/04/04 10:08:45;;;;;;;0.38;0.38;;;12.60;1.00;;;;;;5088523;28;20714;-88
2023/04/04 10:11:11;;;;;;;0.30;0.30;;;11.50;1.00;;;;;;5106103;28;20035;-87
2023/04/04 10:13:39;;;;;;;0.00;0.00;;;12.20;1.00;;;;;;5088555;28;20874;-87
2023/04/04 10:16:07;;;;;;;0.80;0.52;;;11.80;1.00;;;;;;5105154;28;20051;-87
2023/04/04 10:18:36;;;;;;;0.10;0.10;;;9.60;1.00;;;;;;5105531;28;20512;-87
2023/04/04 10:21:07;;;;;;;0.25;0.20;;;10.10;1.00;;;;;;5105606;28;20044;-87
2023/04/04 10:23:34;;;;;;;1.65;0.55;;;10.50;1.00;;;;;;5089292;28;20084;-87
2023/04/04 10:26:00;;;;;;;0.40;0.28;;;11.20;1.00;;;;;;5089137;28;20189;-87
2023/04/04 10:28:30;;;;;;;0.55;0.30;;;10.40;1.00;;;;;;5088869;28;20146;-87
2023/04/04 10:31:24;;;;;;;0.52;0.43;;;11.70;1.00;;;;;;5089210;28;20055;-87
2023/04/04 10:34:03;;;;;;;0.00;0.00;;;10.70;1.00;;;;;;5089079;28;20047;-87
2023/04/04 10:37:02;;;;;;;0.55;0.30;;;10.60;1.00;;;;;;5105744;28;20085;-87
2023/04/04 10:39:42;;;;;;;0.30;0.17;;;11.00;1.00;;;;;;5061200;28;20423;-87
2023/04/04 10:42:13;;;;;;;0.03;0.03;;;12.30;1.00;;;;;;5106903;28;20475;-87
2023/04/04 10:44:40;;;;;;;0.20;0.15;;;11.40;1.00;;;;;;5088653;28;20083;-87
2023/04/04 10:47:15;;;;;;;0.38;0.28;;;12.40;1.00;;;;;;5105319;28;20408;-87
2023/04/04 10:49:44;;;;;;;0.45;0.28;;;11.90;1.00;;;;;;5088389;28;20448;-87
2023/04/04 10:52:12;;;;;;;0.28;0.25;;;13.40;1.00;;;;;;5088398;28;20062;-87
2023/04/04 10:54:40;;;;;;;0.00;0.00;;;13.60;1.00;;;;;;5088324;28;20055;-87
2023/04/04 10:57:06;;;;;;;0.20;0.10;;;13.50;1.00;;;;;;5105874;28;20081;-87
2023/04/04 10:59:32;;;;;;;0.00;0.00;;;12.20;1.00;;;;;;5088827;28;20043;-87
2023/04/04 11:02:05;;;;;;;0.00;0.00;;;11.70;1.00;;;;;;5105316;28;20969;-87
2023/04/04 11:04:37;;;;;;;0.10;0.10;;;13.20;1.00;;;;;;5088368;28;20073;-87
2023/04/04 11:07:15;;;;;;;0.08;0.08;;;13.00;1.00;;;;;;5105270;28;20051;-87
2023/04/04 11:09:53;;;;;;;0.30;0.22;;;13.70;1.00;;;;;;5103821;28;20060;-87
2023/04/04 11:20:11;;;;;;;0.30;0.30;;;12.10;1.00;;;;;;5006606;28;20108;-88
2023/04/04 11:23:05;;;;;;;0.47;0.20;;;12.50;1.00;;;;;;4991142;28;20627;-88
2023/04/04 11:26:25;;;;;;;0.00;0.00;;;13.20;1.00;;;;;;4975319;28;20088;-89
2023/04/04 11:29:51;;;;;;;0.10;0.10;;;11.90;1.00;;;;;;5128511;27;20508;-88
2023/04/04 11:51:48;;;;;;;0.00;0.00;;;13.50;1.00;;;;;;4822038;29;20042;-89
2023/04/04 11:54:19;;;;;;;0.17;0.17;;;12.70;1.00;;;;;;4801148;29;20053;-87
2023/04/04 11:57:02;;;;;;;9.23;1.27;;;12.90;1.00;;;;;;4788458;29;20089;-88
2023/04/04 11:59:51;;;;;;;0.03;0.03;;;12.70;1.00;;;;;;4948143;28;20144;-88
2023/04/04 12:05:48;;;;;;;0.10;0.10;;;12.60;1.00;;;;;;5032838;28;20137;-88
2023/04/04 12:09:02;;;;;;;;;;;;;;;;;;;;;
2023/04/04 12:11:28;;;;;;;0.00;0.00;;;14.90;1.00;;;;;;5096719;28;20603;-88
2023/04/04 12:14:32;;;;;;;0.00;0.00;;;15.40;1.00;;;;;;5079048;28;20040;-88
2023/04/04 12:24:57;;;;;;;;;;;;;;;;;;;;;
2023/04/04 12:28:07;;;;;;;0.13;0.10;;;14.60;1.00;;;;;;5074469;28;20064;-88
2023/04/04 12:31:03;;;;;;;;;;;;;;;;;;;;;
2023/04/04 12:33:55;;;;;;;0.52;0.50;;;16.50;1.00;;;;;;5093477;28;20055;-87
2023/04/04 12:36:25;;;;;;;0.00;0.00;;;14.80;1.00;;;;;;5067428;28;20056;-87
2023/04/04 12:39:17;;;;;;;1.08;0.25;;;15.00;1.00;;;;;;5059093;28;20087;-88
2023/04/04 12:42:11;;;;;;;0.13;0.10;;;15.10;1.00;;;;;;5092086;28;20807;-88
2023/04/04 12:45:12;;;;;;;0.03;0.03;;;14.40;1.00;;;;;;5071230;28;20109;-88
2023/04/04 12:47:56;;;;;;;0.25;0.25;;;14.10;1.00;;;;;;5075179;28;20139;-88
2023/04/04 12:50:30;;;;;;;0.32;0.22;;;13.30;1.00;;;;;;5051608;28;20193;-88
2023/04/04 12:53:15;;;;;;;0.10;0.10;;;13.00;1.00;;;;;;5073682;28;20144;-88
2023/04/04 12:55:46;;;;;;;0.08;0.08;;;13.30;1.00;;;;;;5069834;28;20051;-88
2023/04/04 12:58:21;;;;;;;0.10;0.03;;;13.60;1.00;;;;;;5070324;28;20150;-88
2023/04/04 13:01:03;;;;;;;0.20;0.20;;;13.20;1.00;;;;;;5054453;28;20048;-88
2023/04/04 13:03:29;;;;;;;0.13;0.13;;;15.10;1.00;;;;;;5053476;28;20059;-88
2023/04/04 13:05:56;;;;;;;0.57;0.40;;;14.90;1.00;;;;;;5088482;28;20035;-88
2023/04/04 13:08:22;;;;;;;1.90;0.52;;;14.80;1.00;;;;;;5087951;28;20497;-88
2023/04/04 13:10:59;;;;;;;1.77;0.98;;;15.00;1.00;;;;;;5070156;28;20101;-88
2023/04/04 13:13:36;;;;;;;0.22;0.22;;;14.10;1.00;;;;;;5070228;28;20055;-88
2023/04/04 13:16:13;;;;;;;0.17;0.08;;;14.80;1.00;;;;;;5087888;28;20093;-88
2023/04/04 13:18:43;;;;;;;6.35;1.25;;;15.40;1.00;;;;;;5053092;28;20048;-88
2023/04/04 13:21:17;;;;;;;0.00;0.00;;;15.00;1.00;;;;;;5055144;28;20271;-88
2023/04/04 13:23:43;;;;;;;0.17;0.17;;;14.40;1.00;;;;;;5108379;28;20055;-88
2023/04/04 13:26:10;;;;;;;0.28;0.28;;;15.20;1.00;;;;;;5103405;28;20051;-88
2023/04/04 13:28:35;;;;;;;0.13;0.13;;;14.60;1.00;;;;;;5105851;28;20181;-88
2023/04/04 13:31:06;;;;;;;0.20;0.20;;;15.00;1.00;;;;;;5108248;28;20166;-88
2023/04/04 13:33:32;;;;;;;0.10;0.08;;;14.60;1.00;;;;;;5089340;28;20494;-88
2023/04/04 13:35:58;;;;;;;0.28;0.28;;;16.00;1.00;;;;;;5107505;28;20497;-88
2023/04/04 13:38:26;;;;;;;0.20;0.20;;;15.90;1.00;;;;;;5088821;28;20083;-88
2023/04/04 13:40:51;;;;;;;1.40;0.75;;;14.60;1.00;;;;;;5107998;28;20035;-89
2023/04/04 13:43:17;;;;;;;0.20;0.20;;;14.20;1.00;;;;;;5107080;28;20618;-88
2023/04/04 13:45:43;;;;;;;0.10;0.10;;;14.30;1.00;;;;;;5107411;28;20108;-84
2023/04/04 13:48:10;;;;;;;0.15;0.15;;;14.30;1.00;;;;;;5099278;28;20398;-85
2023/04/04 13:50:37;;;;;;;0.45;0.45;;;14.70;1.00;;;;;;5100691;28;20032;-88
2023/04/04 13:53:03;;;;;;;0.55;0.55;;;16.00;1.00;;;;;;5089708;28;20051;-87
2023/04/04 13:55:32;;;;;;;2.05;0.73;;;15.00;1.00;;;;;;5106022;28;20040;-88
2023/04/04 13:57:57;;;;;;;0.75;0.55;;;15.10;1.00;;;;;;5072441;28;20052;-88
2023/04/04 14:00:24;;;;;;;0.45;0.40;;;16.20;1.00;;;;;;5107763;28;20047;-88
2023/04/04 14:02:50;;;;;;;0.20;0.20;;;14.80;1.00;;;;;;5089701;28;20092;-88
2023/04/04 14:05:17;;;;;;;0.40;0.40;;;15.00;1.00;;;;;;5096111;28;20055;-88
2023/04/04 14:07:43;;;;;;;0.43;0.25;;;15.50;1.00;;;;;;5107784;28;20095;-88
2023/04/04 14:10:10;;;;;;;0.25;0.05;;;15.60;1.00;;;;;;5107610;28;20101;-88
2023/04/04 14:12:37;;;;;;;0.63;0.63;;;15.70;1.00;;;;;;5089238;28;20047;-88
2023/04/04 14:15:04;;;;;;;0.43;0.20;;;15.20;1.00;;;;;;5106073;28;20528;-87
2023/04/04 14:17:30;;;;;;;0.45;0.45;;;15.20;1.00;;;;;;5106666;28;20196;-87
2023/04/04 14:19:56;;;;;;;0.60;0.47;;;14.70;1.00;;;;;;5106639;28;20048;-88
2023/04/04 14:22:21;;;;;;;0.70;0.55;;;14.50;1.00;;;;;;5088367;28;20055;-88
2023/04/04 14:24:50;;;;;;;0.10;0.10;;;14.50;1.00;;;;;;5088335;28;20055;-87